Coe Hill, Canada
Current Conditions -  °F | °C
As of 10:00 PM on Friday 19 Dec 2014 (Local Time) from CYPQ Reporting Station
Clear Clear  
Wind Chill: 19°   Ceiling: Unl
Heat Index: 19°   Visibility: 9mi
Dew Point: 18°   Wind: 2mph
Humidity: 93%   Direction: 300°WNW
Pressure: 30.25"   Gusts: NA
Location:  44.85°N, 77.83°W
Report Text: CYPQ 200300Z AUTO 30002KT 9SM CLR M07/M08 A3025 RMK SLP257
Loading
Personal Weather Stations






























Interactive Weather Map New forecast layout! Learn more

10-Day Weather Forecast

Advertisements
Track Severe Weather on mobile